createdAt,value
2022-08-22T00:02:45.269Z,4.80
2022-08-22T00:02:57.486Z,3.30
2022-08-22T00:08:03.634Z,3.70
2022-08-22T00:12:24.612Z,3.70
2022-08-22T00:16:48.514Z,3.53
2022-08-22T00:21:13.161Z,4.37
2022-08-22T00:25:31.409Z,3.57
2022-08-22T00:29:47.708Z,3.60
2022-08-22T00:34:09.860Z,3.40
2022-08-22T00:38:27.207Z,3.27
2022-08-22T00:43:10.302Z,3.77
2022-08-22T00:47:51.630Z,3.43
2022-08-22T00:52:19.774Z,3.50
2022-08-22T00:56:53.896Z,3.60
2022-08-22T01:01:01.912Z,3.90
2022-08-22T01:05:43.789Z,3.47
2022-08-22T01:10:27.449Z,3.30
2022-08-22T01:14:43.087Z,3.37
2022-08-22T01:19:00.940Z,3.87
2022-08-22T01:23:37.214Z,4.10
2022-08-22T01:28:23.205Z,4.27
2022-08-22T01:33:09.321Z,3.63
2022-08-22T01:37:32.923Z,3.40
2022-08-22T01:42:15.408Z,4.03
2022-08-22T01:46:47.563Z,3.80
2022-08-22T01:51:00.993Z,3.67
2022-08-22T01:55:13.143Z,3.80
2022-08-22T01:59:27.609Z,3.83
2022-08-22T02:04:22.551Z,3.43
2022-08-22T02:08:57.545Z,4.03
2022-08-22T02:13:32.549Z,3.93
2022-08-22T02:17:55.589Z,4.47
2022-08-22T02:22:07.506Z,3.73
2022-08-22T02:26:44.991Z,4.63
2022-08-22T02:30:55.031Z,3.90
2022-08-22T02:35:18.832Z,3.70
2022-08-22T02:39:42.239Z,3.93
2022-08-22T02:43:57.267Z,4.07
2022-08-22T02:48:19.663Z,3.70
2022-08-22T02:52:26.622Z,4.47
2022-08-22T02:56:43.836Z,3.90
2022-08-22T03:01:09.575Z,4.60
2022-08-22T03:05:49.065Z,3.87
2022-08-22T03:10:10.784Z,4.10
2022-08-22T03:14:31.044Z,3.60
2022-08-22T03:18:59.562Z,4.50
2022-08-22T03:23:09.933Z,3.80
2022-08-22T03:27:32.106Z,3.80
2022-08-22T03:31:35.758Z,3.77
2022-08-22T03:35:46.755Z,4.47
2022-08-22T03:39:51.526Z,5.07
2022-08-22T03:44:03.619Z,4.93
2022-08-22T03:48:39.453Z,4.10
2022-08-22T03:53:18.801Z,4.30
2022-08-22T03:57:42.179Z,4.23
2022-08-22T04:02:42.018Z,4.53
2022-08-22T04:07:40.128Z,5.27
2022-08-22T04:12:15.474Z,4.63
2022-08-22T04:17:01.294Z,4.03
2022-08-22T04:21:30.322Z,4.00
2022-08-22T04:25:42.531Z,3.57
2022-08-22T04:29:55.438Z,3.53
2022-08-22T04:34:02.278Z,4.37
2022-08-22T04:38:42.830Z,4.47
2022-08-22T04:42:54.394Z,4.30
2022-08-22T04:47:36.721Z,4.80
2022-08-22T04:51:54.166Z,4.10
2022-08-22T04:56:07.468Z,3.97
2022-08-22T05:00:11.478Z,4.20
2022-08-22T05:04:25.713Z,4.23
2022-08-22T05:08:31.020Z,5.00
2022-08-22T05:12:37.090Z,5.00
2022-08-22T05:16:41.107Z,5.90
2022-08-22T05:20:58.098Z,5.17
2022-08-22T05:25:08.738Z,5.67
2022-08-22T05:29:13.826Z,4.93
2022-08-22T05:33:21.290Z,5.70
2022-08-22T05:37:59.771Z,5.30
2022-08-22T05:42:02.645Z,5.60
2022-08-22T05:46:06.409Z,6.50
2022-08-22T05:50:35.759Z,6.03
2022-08-22T05:54:57.541Z,6.50
2022-08-22T05:59:08.213Z,5.70
2022-08-22T06:03:20.892Z,6.53
2022-08-22T06:07:41.256Z,6.00
2022-08-22T06:11:52.964Z,6.20
2022-08-22T06:16:18.070Z,6.13
2022-08-22T06:20:23.852Z,6.60
2022-08-22T06:24:27.271Z,7.30
2022-08-22T06:28:34.437Z,6.10
2022-08-22T06:32:59.523Z,7.83
2022-08-22T06:37:05.898Z,7.33
2022-08-22T06:41:07.750Z,7.93
2022-08-22T06:45:22.806Z,7.70
2022-08-22T06:49:25.185Z,7.83
2022-08-22T06:53:47.617Z,7.80
2022-08-22T06:58:00.981Z,7.53
2022-08-22T07:02:16.451Z,7.60
2022-08-22T07:06:28.558Z,7.13
2022-08-22T07:10:32.064Z,7.73
2022-08-22T07:14:43.839Z,7.87
2022-08-22T07:18:49.554Z,6.80
2022-08-22T07:23:09.628Z,7.90
2022-08-22T07:27:57.990Z,7.50
2022-08-22T07:32:17.755Z,6.83
2022-08-22T07:36:31.987Z,5.97
2022-08-22T07:40:53.790Z,6.30
2022-08-22T07:45:06.915Z,5.93
2022-08-22T07:49:21.025Z,5.83
2022-08-22T07:54:00.965Z,5.67
2022-08-22T07:58:04.811Z,5.30
2022-08-22T08:02:11.123Z,5.30
2022-08-22T08:06:15.084Z,5.17
2022-08-22T08:10:25.729Z,5.10
2022-08-22T08:14:27.564Z,5.23
2022-08-22T08:18:30.554Z,6.10
2022-08-22T08:22:32.330Z,5.90
2022-08-22T08:27:05.098Z,5.97
2022-08-22T08:31:22.615Z,5.73
2022-08-22T08:35:28.032Z,6.10
2022-08-22T08:39:50.704Z,5.93
2022-08-22T08:44:23.404Z,5.70
2022-08-22T08:48:40.630Z,5.73
2022-08-22T08:53:34.160Z,6.07
2022-08-22T08:57:38.608Z,5.33
2022-08-22T09:02:34.901Z,5.40
2022-08-22T09:07:21.640Z,5.47
2022-08-22T09:11:40.265Z,4.57
2022-08-22T09:16:13.392Z,2.73
2022-08-22T09:20:30.550Z,3.00
2022-08-22T09:25:23.596Z,2.90
2022-08-22T09:29:54.374Z,2.57
2022-08-22T09:34:29.477Z,2.37
2022-08-22T09:38:38.760Z,2.40
2022-08-22T09:42:58.855Z,2.80
2022-08-22T09:47:27.543Z,2.40
2022-08-22T09:51:56.941Z,2.20
2022-08-22T09:56:19.741Z,2.23
2022-08-22T10:00:40.660Z,2.90
2022-08-22T10:05:08.009Z,2.53
2022-08-22T10:09:26.419Z,2.70
2022-08-22T10:14:00.479Z,2.80
2022-08-22T10:18:29.620Z,2.90
2022-08-22T10:22:41.665Z,2.40
2022-08-22T10:26:58.022Z,2.50
2022-08-22T10:31:42.792Z,2.60
2022-08-22T10:36:11.857Z,2.80
2022-08-22T10:40:15.048Z,2.80
2022-08-22T10:44:20.677Z,3.20
2022-08-22T10:48:47.401Z,2.60
2022-08-22T10:53:14.973Z,3.00
2022-08-22T10:57:44.134Z,3.50
2022-08-22T11:02:20.756Z,2.70
2022-08-22T11:06:29.925Z,3.13
2022-08-22T11:10:53.742Z,3.30
2022-08-22T11:15:43.866Z,3.30
2022-08-22T11:20:10.791Z,3.43
2022-08-22T11:24:55.265Z,3.07
2022-08-22T11:29:33.250Z,3.20
2022-08-22T11:33:47.777Z,3.20
2022-08-22T11:38:14.968Z,2.80
2022-08-22T11:42:53.249Z,2.70
2022-08-22T11:46:57.194Z,3.87
2022-08-22T11:51:51.870Z,2.43
2022-08-22T11:56:17.827Z,2.50
2022-08-22T12:00:46.103Z,2.70
2022-08-22T12:05:03.683Z,2.63
2022-08-22T12:09:12.944Z,2.67
2022-08-22T12:13:46.064Z,2.80
2022-08-22T12:18:27.117Z,2.70
2022-08-22T12:23:19.967Z,2.67
2022-08-22T12:27:55.915Z,2.80
2022-08-22T12:31:59.015Z,3.10
2022-08-22T12:37:02.331Z,3.00
2022-08-22T12:41:41.106Z,2.67
2022-08-22T12:46:19.624Z,2.90
2022-08-22T12:50:38.976Z,2.70
2022-08-22T12:54:53.309Z,2.93
2022-08-22T12:59:30.745Z,2.90
2022-08-22T13:03:55.665Z,3.07
2022-08-22T13:08:04.404Z,2.73
2022-08-22T13:12:27.751Z,2.90
2022-08-22T13:16:48.873Z,3.30
2022-08-22T13:20:54.583Z,3.00
2022-08-22T13:25:04.965Z,2.90
2022-08-22T13:29:25.673Z,2.90
2022-08-22T13:33:35.089Z,2.80
2022-08-22T13:37:40.955Z,2.70
2022-08-22T13:41:55.779Z,2.63
2022-08-22T13:46:02.343Z,2.87
2022-08-22T13:50:19.354Z,2.90
2022-08-22T13:54:49.502Z,2.70
2022-08-22T13:58:56.187Z,2.50
2022-08-22T14:03:12.530Z,2.70
2022-08-22T14:07:36.465Z,3.17
2022-08-22T14:12:22.188Z,2.73
2022-08-22T14:16:48.926Z,3.00
2022-08-22T14:20:51.329Z,2.77
2022-08-22T14:24:58.565Z,2.57
2022-08-22T14:29:03.067Z,2.60
2022-08-22T14:33:22.178Z,2.70
2022-08-22T14:37:28.916Z,2.90
2022-08-22T14:41:56.348Z,2.80
2022-08-22T14:46:07.168Z,2.70
2022-08-22T14:50:37.004Z,2.50
2022-08-22T14:54:39.275Z,2.30
2022-08-22T14:58:52.162Z,2.30
2022-08-22T15:02:54.613Z,2.13
2022-08-22T15:06:58.451Z,2.40
2022-08-22T15:11:17.310Z,2.30
2022-08-22T15:15:49.828Z,2.40
2022-08-22T15:19:56.337Z,2.70
2022-08-22T15:24:02.584Z,2.40
2022-08-22T15:28:20.012Z,2.50
2022-08-22T15:32:30.463Z,2.70
2022-08-22T15:36:32.346Z,2.80
2022-08-22T15:40:43.529Z,3.13
2022-08-22T15:44:47.805Z,2.87
2022-08-22T15:49:19.775Z,3.27
2022-08-22T15:53:27.011Z,3.10
2022-08-22T15:57:38.903Z,3.00
2022-08-22T16:01:50.386Z,2.53
2022-08-22T16:06:07.536Z,2.37
2022-08-22T16:10:28.064Z,2.77
2022-08-22T16:14:35.990Z,2.60
2022-08-22T16:18:39.186Z,2.80
2022-08-22T16:23:00.358Z,2.50
2022-08-22T16:27:19.190Z,2.43
2022-08-22T16:31:31.651Z,2.40
2022-08-22T16:36:32.253Z,2.30
2022-08-22T16:40:34.156Z,2.23
2022-08-22T16:45:05.433Z,2.30
2022-08-22T16:49:07.917Z,2.30
2022-08-22T16:53:21.829Z,2.37
2022-08-22T16:58:06.044Z,2.50
2022-08-22T17:02:53.772Z,2.40
2022-08-22T17:07:28.948Z,2.60
2022-08-22T17:11:39.447Z,2.30
2022-08-22T17:16:12.490Z,2.40
2022-08-22T17:20:49.797Z,2.30
2022-08-22T17:25:20.850Z,2.50
2022-08-22T17:29:38.697Z,2.50
2022-08-22T17:33:40.474Z,2.47
2022-08-22T17:38:38.790Z,2.53
2022-08-22T17:43:01.067Z,2.90
2022-08-22T17:47:19.767Z,2.90
2022-08-22T17:51:39.538Z,3.00
2022-08-22T17:56:21.346Z,2.97
2022-08-22T18:00:30.667Z,2.97
2022-08-22T18:05:10.768Z,3.00
2022-08-22T18:09:25.688Z,3.00
2022-08-22T18:13:56.369Z,3.07
2022-08-22T18:18:38.223Z,3.13
2022-08-22T18:22:42.683Z,3.50
2022-08-22T18:27:05.486Z,3.30
2022-08-22T18:31:41.758Z,2.97
2022-08-22T18:35:54.622Z,2.90
2022-08-22T18:40:04.466Z,3.40
2022-08-22T18:44:40.215Z,3.07
2022-08-22T18:49:11.544Z,2.60
2022-08-22T18:53:37.916Z,3.00
2022-08-22T18:58:03.502Z,2.50
2022-08-22T19:02:39.495Z,3.00
2022-08-22T19:07:05.383Z,3.33
2022-08-22T19:11:46.335Z,2.73
2022-08-22T19:16:24.098Z,2.53
2022-08-22T19:20:53.012Z,2.30
2022-08-22T19:25:25.943Z,3.10
2022-08-22T19:29:30.988Z,2.57
2022-08-22T19:33:40.521Z,2.10
2022-08-22T19:37:58.755Z,2.80
2022-08-22T19:42:01.382Z,2.60
2022-08-22T19:46:09.668Z,2.83
2022-08-22T19:50:18.011Z,2.50
2022-08-22T19:54:21.646Z,1.90
2022-08-22T19:58:54.788Z,2.27
2022-08-22T20:03:41.154Z,2.13
2022-08-22T20:08:17.654Z,2.20
2022-08-22T20:12:32.303Z,2.40
2022-08-22T20:17:24.495Z,2.80
2022-08-22T20:21:53.761Z,2.70
2022-08-22T20:25:56.013Z,2.63
2022-08-22T20:30:17.826Z,2.57
2022-08-22T20:34:24.898Z,2.93
2022-08-22T20:38:55.400Z,2.50
2022-08-22T20:43:02.496Z,2.60
2022-08-22T20:51:39.737Z,3.10
2022-08-22T20:55:41.564Z,2.67
2022-08-22T21:00:13.156Z,2.83
2022-08-22T21:04:17.594Z,2.83
2022-08-22T21:08:26.369Z,2.90
2022-08-22T21:12:28.284Z,3.30
2022-08-22T21:16:33.463Z,2.90
2022-08-22T21:20:37.172Z,3.63
2022-08-22T21:24:38.982Z,3.60
2022-08-22T21:29:18.505Z,4.00
2022-08-22T21:33:24.569Z,3.80
2022-08-22T21:37:34.845Z,4.10
2022-08-22T21:41:44.312Z,4.27
2022-08-22T21:45:46.907Z,3.40
2022-08-22T21:50:12.976Z,3.87
2022-08-22T21:54:24.617Z,4.17
2022-08-22T21:58:37.286Z,3.40
2022-08-22T22:02:41.552Z,4.00
2022-08-22T22:06:43.494Z,3.87
2022-08-22T22:10:46.648Z,4.50
2022-08-22T22:14:51.599Z,4.47
2022-08-22T22:18:53.707Z,4.40
2022-08-22T22:22:55.732Z,4.70
2022-08-22T22:26:57.862Z,5.17
2022-08-22T22:31:00.125Z,4.77
2022-08-22T22:35:02.159Z,4.03
2022-08-22T22:39:06.994Z,4.70
2022-08-22T22:43:10.273Z,5.17
2022-08-22T22:47:11.972Z,4.47
2022-08-22T22:51:14.191Z,5.17
2022-08-22T22:55:24.939Z,5.10
2022-08-22T22:59:27.062Z,5.63
2022-08-22T23:03:28.882Z,5.00
2022-08-22T23:07:30.736Z,5.27
2022-08-22T23:11:36.091Z,6.07
2022-08-22T23:15:37.876Z,5.57
2022-08-22T23:19:39.695Z,5.50
2022-08-22T23:23:41.968Z,5.43
2022-08-22T23:27:43.879Z,5.20
2022-08-22T23:31:58.396Z,5.77
2022-08-22T23:36:00.201Z,5.80
2022-08-22T23:40:02.786Z,5.37
2022-08-22T23:44:07.710Z,5.63
2022-08-22T23:48:15.255Z,5.93
2022-08-22T23:52:17.195Z,6.00
2022-08-22T23:56:22.557Z,5.43
